createdAt,value
2023-03-04T00:09:45.514Z,7.70
2023-03-04T00:19:50.475Z,7.70
2023-03-04T00:29:54.105Z,7.80
2023-03-04T00:39:59.384Z,7.90
2023-03-04T00:50:03.079Z,8.00
2023-03-04T01:00:10.043Z,8.00
2023-03-04T01:10:15.731Z,7.80
2023-03-04T01:20:21.310Z,7.60
2023-03-04T01:30:25.063Z,7.70
2023-03-04T01:40:30.464Z,7.70
2023-03-04T01:50:36.523Z,7.60
2023-03-04T02:00:41.931Z,7.60
2023-03-04T02:10:46.230Z,7.60
2023-03-04T02:21:04.142Z,7.60
2023-03-04T02:31:11.135Z,7.50
2023-03-04T02:41:18.129Z,7.50
2023-03-04T02:51:23.445Z,7.60
2023-03-04T03:01:30.243Z,7.40
2023-03-04T03:11:36.288Z,7.30
2023-03-04T03:21:40.255Z,7.20
2023-03-04T03:31:45.487Z,7.20
2023-03-04T03:41:49.199Z,7.00
2023-03-04T03:51:54.281Z,6.90
2023-03-04T04:01:58.077Z,7.00
2023-03-04T04:12:03.324Z,7.00
2023-03-04T04:22:07.133Z,6.90
2023-03-04T04:32:13.374Z,6.80
2023-03-04T04:42:17.175Z,6.50
2023-03-04T04:52:22.227Z,6.70
2023-03-04T05:02:26.033Z,6.70
2023-03-04T05:12:31.322Z,6.70
2023-03-04T05:22:35.313Z,6.60
2023-03-04T05:32:40.504Z,6.60
2023-03-04T05:42:44.175Z,6.50
2023-03-04T05:52:50.292Z,6.50
2023-03-04T06:02:54.182Z,6.60
2023-03-04T06:12:59.799Z,6.60
2023-03-04T06:23:03.800Z,6.60
2023-03-04T06:33:08.921Z,6.50
2023-03-04T06:43:13.026Z,6.40
2023-03-04T06:53:18.456Z,6.60
2023-03-04T07:03:22.485Z,6.70
2023-03-04T07:13:27.706Z,6.90
2023-03-04T07:23:31.594Z,7.10
2023-03-04T07:33:36.720Z,7.30
2023-03-04T07:43:40.656Z,7.50
2023-03-04T07:53:47.611Z,7.80
2023-03-04T08:03:51.690Z,7.90
2023-03-04T08:13:57.389Z,8.20
2023-03-04T08:24:08.713Z,8.60
2023-03-04T08:34:15.395Z,8.90
2023-03-04T08:44:19.597Z,9.50
2023-03-04T08:54:24.971Z,9.70
2023-03-04T09:04:28.848Z,10.00
2023-03-04T09:14:36.020Z,10.10
2023-03-04T09:24:39.800Z,10.60
2023-03-04T09:34:45.024Z,10.70
2023-03-04T09:44:49.658Z,11.30
2023-03-04T09:55:05.154Z,11.70
2023-03-04T10:05:12.513Z,12.00
2023-03-04T10:15:29.121Z,12.50
2023-03-04T10:25:34.667Z,12.70
2023-03-04T10:35:40.359Z,13.20
2023-03-04T10:45:44.944Z,12.90
2023-03-04T10:55:50.126Z,13.50
2023-03-04T11:06:05.319Z,14.50
2023-03-04T11:16:27.619Z,15.40
2023-03-04T11:26:36.352Z,16.10
2023-03-04T11:36:55.185Z,16.50
2023-03-04T11:47:11.751Z,16.60
2023-03-04T11:57:30.202Z,17.20
2023-03-04T12:08:09.417Z,17.40
2023-03-04T12:18:37.240Z,17.80
2023-03-04T12:28:53.387Z,18.60
2023-03-04T12:39:16.237Z,18.50
2023-03-04T12:49:49.323Z,17.80
2023-03-04T13:00:01.657Z,18.50
2023-03-04T13:10:12.243Z,18.30
2023-03-04T13:20:36.627Z,18.00
2023-03-04T13:31:00.747Z,18.60
2023-03-04T13:41:16.222Z,19.10
2023-03-04T13:51:29.634Z,19.40
2023-03-04T14:01:36.956Z,19.90
2023-03-04T14:11:42.976Z,20.40
2023-03-04T14:21:49.276Z,20.70
2023-03-04T14:31:54.060Z,20.80
2023-03-04T14:42:05.159Z,21.80
2023-03-04T14:52:09.001Z,21.50
2023-03-04T15:02:25.641Z,22.10
2023-03-04T15:12:31.553Z,22.30
2023-03-04T15:22:37.805Z,22.40
2023-03-04T15:32:41.452Z,21.40
2023-03-04T15:42:46.692Z,21.20
2023-03-04T15:52:51.268Z,20.10
2023-03-04T16:02:57.441Z,18.60
2023-03-04T16:13:01.686Z,17.80
2023-03-04T16:23:07.451Z,17.50
2023-03-04T16:33:12.226Z,15.90
2023-03-04T16:43:17.679Z,15.40
2023-03-04T16:53:30.429Z,15.20
2023-03-04T17:03:35.566Z,14.90
2023-03-04T17:13:39.757Z,14.60
2023-03-04T17:23:44.800Z,13.60
2023-03-04T17:33:49.472Z,13.10
2023-03-04T17:43:57.135Z,12.90
2023-03-04T17:54:01.590Z,12.70
2023-03-04T18:04:07.018Z,12.40
2023-03-04T18:14:12.883Z,12.50
2023-03-04T18:24:18.057Z,12.70
2023-03-04T18:34:21.806Z,12.00
2023-03-04T18:44:26.836Z,11.00
2023-03-04T18:54:30.602Z,10.40
2023-03-04T19:04:35.835Z,10.20
2023-03-04T19:14:39.551Z,10.00
2023-03-04T19:24:44.662Z,9.80
2023-03-04T19:34:49.120Z,9.80
2023-03-04T19:44:54.249Z,9.70
2023-03-04T19:54:58.547Z,9.50
2023-03-04T20:05:03.895Z,9.20
2023-03-04T20:15:09.620Z,9.00
2023-03-04T20:25:14.725Z,8.80
2023-03-04T20:35:18.688Z,8.90
2023-03-04T20:45:24.960Z,8.80
2023-03-04T20:55:34.691Z,8.50
2023-03-04T21:05:39.773Z,8.40
2023-03-04T21:15:48.384Z,8.70
2023-03-04T21:25:53.642Z,8.60
2023-03-04T21:35:57.220Z,8.70
2023-03-04T21:46:02.470Z,8.80
2023-03-04T21:56:06.596Z,8.90
2023-03-04T22:06:14.087Z,8.60
2023-03-04T22:16:17.777Z,8.60
2023-03-04T22:26:26.949Z,8.70
2023-03-04T22:36:30.881Z,8.50
2023-03-04T22:46:38.496Z,8.50
2023-03-04T22:56:42.639Z,8.70
2023-03-04T23:06:48.064Z,8.60
2023-03-04T23:16:51.860Z,8.30
2023-03-04T23:26:57.011Z,8.30
2023-03-04T23:37:00.661Z,8.20
2023-03-04T23:47:05.900Z,8.00
2023-03-04T23:57:09.699Z,8.00
